Bradford County (N27)
Towanda, PA
Field Elevation: 730
Lat: 41°44.40N  Long: 76°26.83W
CTAF/Unicom Freq: 122.8000
   
     For Weather-by-Phone, call (570) 265-1024
Weather Advisories
2017-03-01   19:57 Z
Altimeter 29.40" Hg
Wind 250° @ 13 KT
Gusts 18 KT
Visibility 10 SM
Ceiling FEW028 SCT180
Temperature 17° C (63° F)
Dewpoint 12° C (54° F)
Relative Humidity 70%
Density Altitude --
Condensation Altitude 3,200 feet
Wind and Runways
Indicated Runway = 23
Headwind = 12 kt
Crosswind = 4 kt
History
 
 
 
More Info
All DigiWx sites map
NOAA Forecast
 
Airport IQ 5010
(LHV) Lock Haven
(PS81) Robert Packer Hospital
 
about DigiWx
 
FAA Disclaimer: The data displayed is for advisory purposes only and is not to be used for flight planning or operations. For official data, please call (570) 265-1024 to hear the current automated AWOS voice message.
  METAR N27 011957Z AUTO 25013G18KT 10 SM FEW028 SCT180 17/12 A2940